sensor_id;sensor_type;location;lat;lon;timestamp;pressure;altitude;pressure_sealevel;temperature;humidity
36242;BME280;22283;42.748;12.732;2023-05-03T00:01:37;97769.19;;;11.62;100.00
36242;BME280;22283;42.748;12.732;2023-05-03T00:06:38;97752.09;;;11.55;100.00
36242;BME280;22283;42.748;12.732;2023-05-03T00:11:38;97757.34;;;11.45;100.00
36242;BME280;22283;42.748;12.732;2023-05-03T00:16:39;97754.34;;;11.39;100.00
36242;BME280;22283;42.748;12.732;2023-05-03T00:21:41;97762.69;;;11.34;100.00
36242;BME280;22283;42.748;12.732;2023-05-03T00:26:42;97766.69;;;11.28;100.00
36242;BME280;22283;42.748;12.732;2023-05-03T00:31:43;97762.63;;;11.13;100.00
36242;BME280;22283;42.748;12.732;2023-05-03T00:36:43;97759.19;;;11.01;100.00
36242;BME280;22283;42.748;12.732;2023-05-03T00:41:44;97760.00;;;11.02;100.00
36242;BME280;22283;42.748;12.732;2023-05-03T00:46:45;97751.34;;;11.00;100.00
36242;BME280;22283;42.748;12.732;2023-05-03T00:51:46;97757.00;;;10.95;100.00
36242;BME280;22283;42.748;12.732;2023-05-03T00:56:47;97763.41;;;10.81;100.00
36242;BME280;22283;42.748;12.732;2023-05-03T01:01:49;97761.97;;;10.77;100.00
36242;BME280;22283;42.748;12.732;2023-05-03T01:17:13;97752.34;;;10.76;100.00
36242;BME280;22283;42.748;12.732;2023-05-03T01:22:21;97760.03;;;10.79;100.00
36242;BME280;22283;42.748;12.732;2023-05-03T01:27:25;97763.16;;;10.84;100.00
36242;BME280;22283;42.748;12.732;2023-05-03T01:32:33;97757.28;;;10.81;100.00
36242;BME280;22283;42.748;12.732;2023-05-03T01:37:36;97754.75;;;10.79;100.00
36242;BME280;22283;42.748;12.732;2023-05-03T01:42:37;97763.91;;;10.75;100.00
36242;BME280;22283;42.748;12.732;2023-05-03T01:47:37;97747.41;;;10.72;100.00
36242;BME280;22283;42.748;12.732;2023-05-03T01:52:38;97769.66;;;10.92;100.00
36242;BME280;22283;42.748;12.732;2023-05-03T01:57:39;97761.69;;;11.03;100.00
36242;BME280;22283;42.748;12.732;2023-05-03T02:02:40;97766.97;;;11.03;100.00
36242;BME280;22283;42.748;12.732;2023-05-03T02:07:40;97764.56;;;11.11;100.00
36242;BME280;22283;42.748;12.732;2023-05-03T02:12:41;97774.66;;;11.17;100.00
36242;BME280;22283;42.748;12.732;2023-05-03T02:17:42;97765.75;;;11.18;100.00
36242;BME280;22283;42.748;12.732;2023-05-03T02:22:43;97770.78;;;11.21;100.00
36242;BME280;22283;42.748;12.732;2023-05-03T02:27:43;97766.69;;;11.28;100.00
36242;BME280;22283;42.748;12.732;2023-05-03T02:32:44;97768.84;;;11.23;100.00
36242;BME280;22283;42.748;12.732;2023-05-03T02:37:45;97770.78;;;11.21;100.00
36242;BME280;22283;42.748;12.732;2023-05-03T02:42:46;97766.28;;;11.44;100.00
36242;BME280;22283;42.748;12.732;2023-05-03T02:47:53;97766.41;;;11.64;100.00
36242;BME280;22283;42.748;12.732;2023-05-03T02:52:57;97771.44;;;11.67;100.00
36242;BME280;22283;42.748;12.732;2023-05-03T02:57:58;97751.22;;;11.45;100.00
36242;BME280;22283;42.748;12.732;2023-05-03T03:02:59;97762.47;;;11.58;100.00
36242;BME280;22283;42.748;12.732;2023-05-03T03:08:00;97770.66;;;11.55;100.00
36242;BME280;22283;42.748;12.732;2023-05-03T03:13:02;97770.63;;;11.66;100.00
36242;BME280;22283;42.748;12.732;2023-05-03T03:18:09;97774.00;;;11.68;100.00
36242;BME280;22283;42.748;12.732;2023-05-03T03:23:10;97777.34;;;11.70;100.00
36242;BME280;22283;42.748;12.732;2023-05-03T03:28:11;97784.06;;;11.74;100.00
36242;BME280;22283;42.748;12.732;2023-05-03T03:33:12;97789.50;;;11.73;100.00
36242;BME280;22283;42.748;12.732;2023-05-03T03:38:15;97795.84;;;11.81;100.00
36242;BME280;22283;42.748;12.732;2023-05-03T03:43:23;97795.88;;;11.70;100.00
36242;BME280;22283;42.748;12.732;2023-05-03T03:48:24;97793.53;;;11.56;100.00
36242;BME280;22283;42.748;12.732;2023-05-03T03:53:24;97806.28;;;11.62;100.00
36242;BME280;22283;42.748;12.732;2023-05-03T03:58:25;97808.66;;;11.44;100.00
36242;BME280;22283;42.748;12.732;2023-05-03T04:03:28;97812.88;;;11.36;100.00
36242;BME280;22283;42.748;12.732;2023-05-03T04:08:29;97827.31;;;11.43;100.00
36242;BME280;22283;42.748;12.732;2023-05-03T04:13:29;97828.97;;;11.44;100.00
36242;BME280;22283;42.748;12.732;2023-05-03T04:18:30;97837.63;;;11.57;100.00
36242;BME280;22283;42.748;12.732;2023-05-03T04:23:32;97844.97;;;11.53;100.00
36242;BME280;22283;42.748;12.732;2023-05-03T04:28:34;97852.72;;;11.77;100.00
36242;BME280;22283;42.748;12.732;2023-05-03T04:33:35;97855.81;;;11.82;100.00
36242;BME280;22283;42.748;12.732;2023-05-03T04:38:38;97872.13;;;12.10;100.00
36242;BME280;22283;42.748;12.732;2023-05-03T04:43:39;97879.59;;;12.16;100.00
36242;BME280;22283;42.748;12.732;2023-05-03T04:48:40;97877.13;;;12.24;100.00
36242;BME280;22283;42.748;12.732;2023-05-03T04:53:41;97883.31;;;12.76;100.00
36242;BME280;22283;42.748;12.732;2023-05-03T04:58:47;97880.41;;;13.70;100.00
36242;BME280;22283;42.748;12.732;2023-05-03T05:03:50;97881.19;;;15.24;100.00
36242;BME280;22283;42.748;12.732;2023-05-03T05:08:55;97891.56;;;15.55;100.00
36242;BME280;22283;42.748;12.732;2023-05-03T05:13:56;97893.97;;;17.17;92.59
36242;BME280;22283;42.748;12.732;2023-05-03T05:18:56;97904.84;;;18.25;79.96
36242;BME280;22283;42.748;12.732;2023-05-03T05:24:00;97924.72;;;17.55;83.95
36242;BME280;22283;42.748;12.732;2023-05-03T05:29:01;97934.50;;;16.60;90.81
36242;BME280;22283;42.748;12.732;2023-05-03T05:34:02;97928.03;;;16.09;96.78
36242;BME280;22283;42.748;12.732;2023-05-03T05:39:03;97933.47;;;15.62;99.46
36242;BME280;22283;42.748;12.732;2023-05-03T05:44:06;97937.25;;;15.32;100.00
36242;BME280;22283;42.748;12.732;2023-05-03T05:49:07;97939.19;;;15.03;100.00
36242;BME280;22283;42.748;12.732;2023-05-03T05:54:08;97945.84;;;14.89;100.00
36242;BME280;22283;42.748;12.732;2023-05-03T05:59:08;97952.00;;;14.80;100.00
36242;BME280;22283;42.748;12.732;2023-05-03T06:04:11;97955.53;;;14.70;100.00
36242;BME280;22283;42.748;12.732;2023-05-03T06:09:12;97962.81;;;14.78;100.00
36242;BME280;22283;42.748;12.732;2023-05-03T06:14:14;97962.34;;;14.92;100.00
36242;BME280;22283;42.748;12.732;2023-05-03T06:19:15;97960.06;;;15.17;100.00
36242;BME280;22283;42.748;12.732;2023-05-03T06:24:16;97959.56;;;15.41;100.00
36242;BME280;22283;42.748;12.732;2023-05-03T06:29:23;97966.88;;;15.76;100.00
36242;BME280;22283;42.748;12.732;2023-05-03T06:34:25;97974.00;;;16.21;100.00
36242;BME280;22283;42.748;12.732;2023-05-03T06:39:27;97973.03;;;16.76;99.43
36242;BME280;22283;42.748;12.732;2023-05-03T06:44:28;97977.56;;;17.61;93.18
36242;BME280;22283;42.748;12.732;2023-05-03T06:49:29;97967.16;;;18.92;82.92
36242;BME280;22283;42.748;12.732;2023-05-03T06:54:29;97978.19;;;18.56;80.51
36242;BME280;22283;42.748;12.732;2023-05-03T06:59:30;97976.53;;;18.47;76.80
36242;BME280;22283;42.748;12.732;2023-05-03T07:04:31;97977.56;;;18.79;76.10
36242;BME280;22283;42.748;12.732;2023-05-03T07:09:32;97982.91;;;19.03;70.72
36242;BME280;22283;42.748;12.732;2023-05-03T07:14:32;97987.91;;;19.23;72.36
36242;BME280;22283;42.748;12.732;2023-05-03T07:19:33;97985.34;;;20.01;69.57
36242;BME280;22283;42.748;12.732;2023-05-03T07:24:34;97991.84;;;19.59;71.81
36242;BME280;22283;42.748;12.732;2023-05-03T07:29:35;98000.19;;;19.17;72.21
36242;BME280;22283;42.748;12.732;2023-05-03T07:34:35;97993.78;;;19.18;73.84
36242;BME280;22283;42.748;12.732;2023-05-03T07:39:36;97988.22;;;19.28;68.15
36242;BME280;22283;42.748;12.732;2023-05-03T07:44:37;97999.34;;;19.16;70.52
36242;BME280;22283;42.748;12.732;2023-05-03T07:49:37;97990.28;;;19.17;69.41
36242;BME280;22283;42.748;12.732;2023-05-03T07:54:38;97997.81;;;19.14;67.27
36242;BME280;22283;42.748;12.732;2023-05-03T07:59:38;97998.66;;;19.06;67.78
36242;BME280;22283;42.748;12.732;2023-05-03T08:04:39;98000.53;;;18.98;67.78
36242;BME280;22283;42.748;12.732;2023-05-03T08:09:40;98007.38;;;18.92;65.16
36242;BME280;22283;42.748;12.732;2023-05-03T08:14:41;98007.38;;;18.92;66.03
36242;BME280;22283;42.748;12.732;2023-05-03T08:19:42;98005.03;;;19.22;65.03
36242;BME280;22283;42.748;12.732;2023-05-03T08:24:43;98008.66;;;19.53;61.25
36242;BME280;22283;42.748;12.732;2023-05-03T08:29:43;98006.53;;;19.96;60.44
36242;BME280;22283;42.748;12.732;2023-05-03T08:34:44;98018.03;;;20.44;60.00
36242;BME280;22283;42.748;12.732;2023-05-03T08:39:45;98020.13;;;20.26;57.08
36242;BME280;22283;42.748;12.732;2023-05-03T08:44:47;98022.13;;;20.32;58.88
36242;BME280;22283;42.748;12.732;2023-05-03T08:49:50;98020.38;;;20.16;58.37
36242;BME280;22283;42.748;12.732;2023-05-03T08:54:52;98027.31;;;20.65;55.85
36242;BME280;22283;42.748;12.732;2023-05-03T08:59:53;98018.63;;;20.54;54.17
36242;BME280;22283;42.748;12.732;2023-05-03T09:04:56;98037.56;;;20.30;55.63
36242;BME280;22283;42.748;12.732;2023-05-03T09:09:57;98040.09;;;19.92;59.91
36242;BME280;22283;42.748;12.732;2023-05-03T09:14:59;98032.81;;;20.40;58.03
36242;BME280;22283;42.748;12.732;2023-05-03T09:20:00;98046.84;;;20.27;55.43
36242;BME280;22283;42.748;12.732;2023-05-03T09:25:01;98047.91;;;19.46;63.27
36242;BME280;22283;42.748;12.732;2023-05-03T09:30:16;98054.47;;;19.11;63.84
36242;BME280;22283;42.748;12.732;2023-05-03T09:35:17;98052.13;;;18.91;65.22
36242;BME280;22283;42.748;12.732;2023-05-03T09:40:18;98061.00;;;18.84;63.23
36242;BME280;22283;42.748;12.732;2023-05-03T09:45:25;98052.94;;;18.84;65.28
36242;BME280;22283;42.748;12.732;2023-05-03T09:50:26;98056.66;;;18.99;65.09
36242;BME280;22283;42.748;12.732;2023-05-03T09:55:30;98041.88;;;19.28;61.09
36242;BME280;22283;42.748;12.732;2023-05-03T10:00:41;98051.63;;;19.12;62.65
36242;BME280;22283;42.748;12.732;2023-05-03T10:05:46;98064.84;;;18.73;63.05
36242;BME280;22283;42.748;12.732;2023-05-03T10:10:48;98060.41;;;18.56;64.07
36242;BME280;22283;42.748;12.732;2023-05-03T10:15:57;98058.13;;;18.69;65.54
36242;BME280;22283;42.748;12.732;2023-05-03T10:21:08;98060.31;;;18.74;65.97
36242;BME280;22283;42.748;12.732;2023-05-03T10:26:12;98071.38;;;18.87;65.60
36242;BME280;22283;42.748;12.732;2023-05-03T10:31:45;98063.03;;;19.14;63.31
36242;BME280;22283;42.748;12.732;2023-05-03T10:36:47;98060.31;;;19.31;63.66
36242;BME280;22283;42.748;12.732;2023-05-03T10:42:01;98063.16;;;18.72;64.10
36242;BME280;22283;42.748;12.732;2023-05-03T10:47:12;98053.97;;;18.83;65.22
36242;BME280;22283;42.748;12.732;2023-05-03T10:57:41;98059.50;;;18.89;65.11
36242;BME280;22283;42.748;12.732;2023-05-03T11:08:20;98041.69;;;19.54;62.83
36242;BME280;22283;42.748;12.732;2023-05-03T11:13:21;98042.47;;;19.79;59.84
36242;BME280;22283;42.748;12.732;2023-05-03T11:18:23;98057.28;;;19.50;59.81
36242;BME280;22283;42.748;12.732;2023-05-03T11:23:26;98055.66;;;19.16;60.49
36242;BME280;22283;42.748;12.732;2023-05-03T11:28:27;98060.31;;;19.39;60.78
36242;BME280;22283;42.748;12.732;2023-05-03T11:33:28;98065.38;;;19.01;61.67
36242;BME280;22283;42.748;12.732;2023-05-03T11:38:31;98076.91;;;18.77;60.98
36242;BME280;22283;42.748;12.732;2023-05-03T11:43:32;98082.34;;;18.51;62.78
36242;BME280;22283;42.748;12.732;2023-05-03T11:48:33;98072.47;;;18.60;63.51
36242;BME280;22283;42.748;12.732;2023-05-03T11:53:36;98067.69;;;18.72;62.70
36242;BME280;22283;42.748;12.732;2023-05-03T12:04:01;98077.13;;;18.41;66.11
36242;BME280;22283;42.748;12.732;2023-05-03T12:09:03;98084.22;;;18.67;63.61
36242;BME280;22283;42.748;12.732;2023-05-03T12:14:13;98085.81;;;18.86;62.58
36242;BME280;22283;42.748;12.732;2023-05-03T12:19:23;98082.44;;;19.08;60.27
36242;BME280;22283;42.748;12.732;2023-05-03T12:24:24;98085.13;;;18.92;60.58
36242;BME280;22283;42.748;12.732;2023-05-03T12:29:25;98072.22;;;18.87;60.30
36242;BME280;22283;42.748;12.732;2023-05-03T12:34:26;98086.13;;;18.99;59.49
36242;BME280;22283;42.748;12.732;2023-05-03T12:39:27;98080.78;;;18.99;57.66
36242;BME280;22283;42.748;12.732;2023-05-03T12:44:27;98081.78;;;19.23;56.96
36242;BME280;22283;42.748;12.732;2023-05-03T12:49:28;98073.91;;;19.37;57.36
36242;BME280;22283;42.748;12.732;2023-05-03T12:54:29;98083.13;;;19.43;55.71
36242;BME280;22283;42.748;12.732;2023-05-03T12:59:30;98089.50;;;19.34;54.13
36242;BME280;22283;42.748;12.732;2023-05-03T13:04:31;98082.28;;;19.42;54.60
36242;BME280;22283;42.748;12.732;2023-05-03T13:09:32;98070.03;;;19.24;55.12
36242;BME280;22283;42.748;12.732;2023-05-03T13:14:33;98070.72;;;19.42;54.50
36242;BME280;22283;42.748;12.732;2023-05-03T13:19:33;98068.00;;;19.50;55.22
36242;BME280;22283;42.748;12.732;2023-05-03T13:24:34;98050.94;;;19.27;53.67
36242;BME280;22283;42.748;12.732;2023-05-03T13:29:35;98054.91;;;19.55;54.66
36242;BME280;22283;42.748;12.732;2023-05-03T13:34:36;98056.22;;;19.92;54.31
36242;BME280;22283;42.748;12.732;2023-05-03T13:39:36;98044.19;;;19.80;57.30
36242;BME280;22283;42.748;12.732;2023-05-03T13:44:37;98038.34;;;20.07;56.81
36242;BME280;22283;42.748;12.732;2023-05-03T13:49:38;98043.44;;;19.94;53.90
36242;BME280;22283;42.748;12.732;2023-05-03T13:54:38;98029.09;;;19.62;54.59
36242;BME280;22283;42.748;12.732;2023-05-03T13:59:40;98039.72;;;19.23;57.85
36242;BME280;22283;42.748;12.732;2023-05-03T14:04:40;98046.25;;;18.96;61.63
36242;BME280;22283;42.748;12.732;2023-05-03T14:09:41;98045.47;;;18.37;62.24
36242;BME280;22283;42.748;12.732;2023-05-03T14:14:42;98040.94;;;18.29;64.58
36242;BME280;22283;42.748;12.732;2023-05-03T14:19:42;98036.78;;;18.43;64.29
36242;BME280;22283;42.748;12.732;2023-05-03T14:24:43;98032.69;;;18.81;62.36
36242;BME280;22283;42.748;12.732;2023-05-03T14:29:45;98029.50;;;19.10;58.70
36242;BME280;22283;42.748;12.732;2023-05-03T14:34:46;98036.38;;;19.05;56.38
36242;BME280;22283;42.748;12.732;2023-05-03T14:39:47;98045.78;;;19.01;56.58
36242;BME280;22283;42.748;12.732;2023-05-03T14:44:48;98030.16;;;19.04;56.01
36242;BME280;22283;42.748;12.732;2023-05-03T14:49:50;98029.50;;;18.94;55.64
36242;BME280;22283;42.748;12.732;2023-05-03T14:54:50;98036.63;;;18.61;59.49
36242;BME280;22283;42.748;12.732;2023-05-03T14:59:52;98053.41;;;18.63;60.94
36242;BME280;22283;42.748;12.732;2023-05-03T15:04:56;98054.53;;;18.44;60.58
36242;BME280;22283;42.748;12.732;2023-05-03T15:09:56;98065.44;;;18.51;60.18
36242;BME280;22283;42.748;12.732;2023-05-03T15:14:58;98066.00;;;18.71;57.25
36242;BME280;22283;42.748;12.732;2023-05-03T15:19:58;98074.66;;;18.56;60.63
36242;BME280;22283;42.748;12.732;2023-05-03T15:24:59;98081.34;;;18.60;60.52
36242;BME280;22283;42.748;12.732;2023-05-03T15:30:00;98064.16;;;18.71;59.12
36242;BME280;22283;42.748;12.732;2023-05-03T15:35:00;98066.03;;;18.87;60.49
36242;BME280;22283;42.748;12.732;2023-05-03T15:40:05;98081.78;;;18.98;57.96
36242;BME280;22283;42.748;12.732;2023-05-03T15:45:08;98090.41;;;18.59;60.22
36242;BME280;22283;42.748;12.732;2023-05-03T15:50:10;98086.19;;;18.57;62.50
36242;BME280;22283;42.748;12.732;2023-05-03T15:55:11;98103.34;;;18.72;57.29
36242;BME280;22283;42.748;12.732;2023-05-03T16:00:16;98100.09;;;18.52;59.53
36242;BME280;22283;42.748;12.732;2023-05-03T16:05:17;98099.47;;;18.66;59.79
36242;BME280;22283;42.748;12.732;2023-05-03T16:10:18;98111.50;;;18.62;58.67
36242;BME280;22283;42.748;12.732;2023-05-03T16:15:19;98107.75;;;18.39;59.38
36242;BME280;22283;42.748;12.732;2023-05-03T16:20:20;98117.53;;;18.14;58.27
36242;BME280;22283;42.748;12.732;2023-05-03T16:25:21;98116.94;;;17.94;60.91
36242;BME280;22283;42.748;12.732;2023-05-03T16:30:22;98121.50;;;18.02;58.26
36242;BME280;22283;42.748;12.732;2023-05-03T16:35:22;98115.34;;;17.83;60.07
36242;BME280;22283;42.748;12.732;2023-05-03T16:40:23;98146.13;;;17.79;58.20
36242;BME280;22283;42.748;12.732;2023-05-03T16:45:24;98140.94;;;17.60;60.03
36242;BME280;22283;42.748;12.732;2023-05-03T16:50:25;98127.97;;;17.47;61.33
36242;BME280;22283;42.748;12.732;2023-05-03T16:55:26;98148.06;;;17.51;58.55
36242;BME280;22283;42.748;12.732;2023-05-03T17:00:26;98147.00;;;17.44;62.64
36242;BME280;22283;42.748;12.732;2023-05-03T17:05:28;98158.41;;;17.28;59.83
36242;BME280;22283;42.748;12.732;2023-05-03T17:10:35;98161.84;;;17.20;59.97
36242;BME280;22283;42.748;12.732;2023-05-03T17:15:37;98170.69;;;17.03;63.42
36242;BME280;22283;42.748;12.732;2023-05-03T17:20:38;98187.25;;;16.89;63.37
36242;BME280;22283;42.748;12.732;2023-05-03T17:25:40;98181.06;;;16.88;64.43
36242;BME280;22283;42.748;12.732;2023-05-03T17:30:41;98190.41;;;16.75;65.30
36242;BME280;22283;42.748;12.732;2023-05-03T17:35:42;98199.47;;;16.64;63.40
36242;BME280;22283;42.748;12.732;2023-05-03T17:40:44;98204.50;;;16.39;65.55
36242;BME280;22283;42.748;12.732;2023-05-03T17:45:45;98213.81;;;16.26;65.68
36242;BME280;22283;42.748;12.732;2023-05-03T17:50:56;98225.25;;;16.08;65.09
36242;BME280;22283;42.748;12.732;2023-05-03T17:55:57;98227.69;;;15.92;65.07
36242;BME280;22283;42.748;12.732;2023-05-03T18:00:57;98232.47;;;15.69;68.26
36242;BME280;22283;42.748;12.732;2023-05-03T18:05:58;98248.16;;;15.43;70.82
36242;BME280;22283;42.748;12.732;2023-05-03T18:10:59;98253.78;;;15.30;70.62
36242;BME280;22283;42.748;12.732;2023-05-03T18:16:05;98257.41;;;15.19;71.47
36242;BME280;22283;42.748;12.732;2023-05-03T18:21:07;98266.06;;;15.02;74.30
36242;BME280;22283;42.748;12.732;2023-05-03T18:26:11;98261.38;;;14.85;76.47
36242;BME280;22283;42.748;12.732;2023-05-03T18:31:11;98260.34;;;14.66;77.91
36242;BME280;22283;42.748;12.732;2023-05-03T18:36:12;98267.16;;;14.49;79.57
36242;BME280;22283;42.748;12.732;2023-05-03T18:41:14;98273.06;;;14.32;81.54
36242;BME280;22283;42.748;12.732;2023-05-03T18:46:17;98285.28;;;14.35;81.23
36242;BME280;22283;42.748;12.732;2023-05-03T18:51:18;98284.50;;;14.23;82.50
36242;BME280;22283;42.748;12.732;2023-05-03T18:56:19;98296.06;;;14.12;83.31
36242;BME280;22283;42.748;12.732;2023-05-03T19:01:19;98300.94;;;14.07;83.42
36242;BME280;22283;42.748;12.732;2023-05-03T19:06:20;98291.00;;;13.88;84.65
36242;BME280;22283;42.748;12.732;2023-05-03T19:11:21;98295.13;;;13.60;86.23
36242;BME280;22283;42.748;12.732;2023-05-03T19:16:21;98300.25;;;13.41;89.29
36242;BME280;22283;42.748;12.732;2023-05-03T19:21:22;98308.97;;;13.20;91.42
36242;BME280;22283;42.748;12.732;2023-05-03T19:26:24;98309.22;;;13.06;92.31
36242;BME280;22283;42.748;12.732;2023-05-03T19:31:25;98309.16;;;12.96;93.58
36242;BME280;22283;42.748;12.732;2023-05-03T19:36:26;98306.13;;;13.01;92.91
36242;BME280;22283;42.748;12.732;2023-05-03T19:41:27;98306.94;;;13.01;90.95
36242;BME280;22283;42.748;12.732;2023-05-03T19:46:29;98298.66;;;12.84;91.47
36242;BME280;22283;42.748;12.732;2023-05-03T19:51:31;98316.75;;;12.78;94.16
36242;BME280;22283;42.748;12.732;2023-05-03T19:56:32;98314.00;;;12.80;100.00
36242;BME280;22283;42.748;12.732;2023-05-03T20:01:33;98319.66;;;12.53;100.00
36242;BME280;22283;42.748;12.732;2023-05-03T20:06:34;98323.16;;;12.53;100.00
36242;BME280;22283;42.748;12.732;2023-05-03T20:11:34;98345.44;;;12.28;100.00
36242;BME280;22283;42.748;12.732;2023-05-03T20:16:35;98336.56;;;12.05;100.00
36242;BME280;22283;42.748;12.732;2023-05-03T20:21:38;98342.22;;;12.01;100.00
36242;BME280;22283;42.748;12.732;2023-05-03T20:26:39;98339.59;;;11.77;100.00
36242;BME280;22283;42.748;12.732;2023-05-03T20:31:40;98348.47;;;11.89;100.00
36242;BME280;22283;42.748;12.732;2023-05-03T20:36:41;98348.94;;;11.70;100.00
36242;BME280;22283;42.748;12.732;2023-05-03T20:41:41;98343.44;;;11.25;100.00
36242;BME280;22283;42.748;12.732;2023-05-03T20:46:42;98341.34;;;11.04;100.00
36242;BME280;22283;42.748;12.732;2023-05-03T20:51:45;98345.38;;;11.10;100.00
36242;BME280;22283;42.748;12.732;2023-05-03T20:56:46;98344.09;;;11.03;100.00
36242;BME280;22283;42.748;12.732;2023-05-03T21:01:47;98338.53;;;10.95;100.00
36242;BME280;22283;42.748;12.732;2023-05-03T21:06:47;98341.59;;;10.89;100.00
36242;BME280;22283;42.748;12.732;2023-05-03T21:11:48;98346.38;;;10.83;100.00
36242;BME280;22283;42.748;12.732;2023-05-03T21:16:49;98342.91;;;10.70;100.00
36242;BME280;22283;42.748;12.732;2023-05-03T21:21:50;98351.81;;;10.69;100.00
36242;BME280;22283;42.748;12.732;2023-05-03T21:26:50;98345.13;;;10.64;100.00
36242;BME280;22283;42.748;12.732;2023-05-03T21:31:51;98355.91;;;10.61;100.00
36242;BME280;22283;42.748;12.732;2023-05-03T21:36:52;98347.59;;;10.54;100.00
36242;BME280;22283;42.748;12.732;2023-05-03T21:41:52;98354.44;;;10.44;100.00
36242;BME280;22283;42.748;12.732;2023-05-03T21:46:54;98351.69;;;10.32;100.00
36242;BME280;22283;42.748;12.732;2023-05-03T21:51:54;98351.34;;;10.24;100.00
36242;BME280;22283;42.748;12.732;2023-05-03T21:56:55;98357.91;;;10.06;100.00
36242;BME280;22283;42.748;12.732;2023-05-03T22:01:55;98364.03;;;10.19;100.00
36242;BME280;22283;42.748;12.732;2023-05-03T22:06:56;98368.66;;;10.03;100.00
36242;BME280;22283;42.748;12.732;2023-05-03T22:11:56;98371.16;;;9.92;100.00
36242;BME280;22283;42.748;12.732;2023-05-03T22:16:58;98380.06;;;9.91;100.00
36242;BME280;22283;42.748;12.732;2023-05-03T22:21:58;98378.75;;;9.83;100.00
36242;BME280;22283;42.748;12.732;2023-05-03T22:26:59;98380.97;;;9.90;100.00
36242;BME280;22283;42.748;12.732;2023-05-03T22:32:00;98380.44;;;9.84;100.00
36242;BME280;22283;42.748;12.732;2023-05-03T22:37:00;98375.78;;;9.75;100.00
36242;BME280;22283;42.748;12.732;2023-05-03T22:42:01;98378.81;;;9.69;100.00
36242;BME280;22283;42.748;12.732;2023-05-03T22:47:02;98388.47;;;9.70;100.00
36242;BME280;22283;42.748;12.732;2023-05-03T22:52:03;98390.94;;;9.59;100.00
36242;BME280;22283;42.748;12.732;2023-05-03T22:57:04;98392.25;;;9.66;100.00
36242;BME280;22283;42.748;12.732;2023-05-03T23:02:05;98401.09;;;9.65;100.00
36242;BME280;22283;42.748;12.732;2023-05-03T23:07:05;98389.63;;;9.52;100.00
36242;BME280;22283;42.748;12.732;2023-05-03T23:12:06;98394.75;;;9.41;100.00
36242;BME280;22283;42.748;12.732;2023-05-03T23:17:06;98390.88;;;9.46;100.00
36242;BME280;22283;42.748;12.732;2023-05-03T23:22:07;98396.63;;;9.53;100.00
36242;BME280;22283;42.748;12.732;2023-05-03T23:27:08;98394.03;;;9.39;100.00
36242;BME280;22283;42.748;12.732;2023-05-03T23:32:11;98385.72;;;9.30;100.00
36242;BME280;22283;42.748;12.732;2023-05-03T23:37:12;98390.28;;;9.28;100.00
36242;BME280;22283;42.748;12.732;2023-05-03T23:42:12;98383.13;;;9.16;100.00
36242;BME280;22283;42.748;12.732;2023-05-03T23:47:13;98380.66;;;9.27;100.00
36242;BME280;22283;42.748;12.732;2023-05-03T23:52:14;98374.44;;;9.28;100.00
36242;BME280;22283;42.748;12.732;2023-05-03T23:57:18;98382.16;;;9.31;100.00
